Time;durP1;ratioP1;P1;durP2;ratioP2;P2;SDS_P1;SDS_P2;PMS_P1;PMS_P2;Temp;Humidity;BMP_temperature;BMP_pressure;BME280_temperature;BME280_humidity;BME280_pressure;Samples;Min_cycle;Max_cycle;Signal;HPM_P1;HPM_P2
2023/03/16 00:01:41;;;;;;;20.23;16.70;;;2.00;99.90;;;;;;5025738;28;20449;-68
2023/03/16 00:04:06;;;;;;;17.43;15.20;;;2.00;99.90;;;;;;5019912;28;20554;-68
2023/03/16 00:06:32;;;;;;;17.73;15.90;;;2.00;99.90;;;;;;5019137;28;20203;-68
2023/03/16 00:08:57;;;;;;;17.63;15.73;;;2.00;99.90;;;;;;5007254;28;20807;-68
2023/03/16 00:11:27;;;;;;;18.43;16.60;;;2.00;99.90;;;;;;5019702;28;20198;-68
2023/03/16 00:13:52;;;;;;;16.00;14.30;;;1.90;99.90;;;;;;5017544;28;20211;-68
2023/03/16 00:16:18;;;;;;;17.23;15.50;;;1.90;99.90;;;;;;5018079;28;21013;-67
2023/03/16 00:18:44;;;;;;;16.67;14.97;;;1.90;99.90;;;;;;5025278;28;20181;-68
2023/03/16 00:21:12;;;;;;;17.97;16.17;;;1.90;99.90;;;;;;5012132;28;20182;-68
2023/03/16 00:23:38;;;;;;;15.40;13.80;;;1.90;99.90;;;;;;5012291;28;20437;-67
2023/03/16 00:26:06;;;;;;;17.83;15.30;;;1.90;99.90;;;;;;5023640;28;21014;-67
2023/03/16 00:28:33;;;;;;;16.60;14.80;;;1.80;99.90;;;;;;5024691;28;20553;-68
2023/03/16 00:31:04;;;;;;;20.30;16.13;;;1.70;99.90;;;;;;5022933;28;20970;-68
2023/03/16 00:33:33;;;;;;;16.63;14.90;;;1.60;99.90;;;;;;4996627;28;20789;-68
2023/03/16 00:36:02;;;;;;;18.20;15.17;;;1.70;99.90;;;;;;5009002;28;20807;-67
2023/03/16 00:38:33;;;;;;;19.47;15.73;;;1.60;99.90;;;;;;5019283;28;20456;-68
2023/03/16 00:41:02;;;;;;;18.20;15.50;;;1.60;99.90;;;;;;5014831;28;21012;-69
2023/03/16 00:43:29;;;;;;;19.93;16.57;;;1.60;99.90;;;;;;5019503;28;20438;-69
2023/03/16 00:46:05;;;;;;;19.90;15.60;;;1.60;99.90;;;;;;5021909;28;20447;-68
2023/03/16 00:48:34;;;;;;;17.53;15.50;;;1.60;99.90;;;;;;5011784;28;20563;-67
2023/03/16 00:51:03;;;;;;;17.07;15.17;;;1.60;99.90;;;;;;5017160;28;20491;-68
2023/03/16 00:53:29;;;;;;;20.20;15.80;;;1.60;99.90;;;;;;5018130;28;20467;-68
2023/03/16 00:55:54;;;;;;;17.73;15.83;;;1.60;99.90;;;;;;5021999;28;20522;-67
2023/03/16 00:58:20;;;;;;;18.23;16.30;;;1.50;99.90;;;;;;5027408;28;20464;-67
2023/03/16 01:00:46;;;;;;;17.80;15.97;;;1.50;99.90;;;;;;5020736;28;20171;-67
2023/03/16 01:03:11;;;;;;;17.73;15.97;;;1.50;99.90;;;;;;5016374;28;20838;-67
2023/03/16 01:05:40;;;;;;;18.10;15.70;;;1.50;99.90;;;;;;5022810;28;20442;-67
2023/03/16 01:08:07;;;;;;;16.90;15.30;;;1.50;99.90;;;;;;5024194;28;20193;-67
2023/03/16 01:10:34;;;;;;;17.17;15.50;;;1.50;99.90;;;;;;5016746;28;20433;-67
2023/03/16 01:13:02;;;;;;;17.00;15.17;;;1.40;99.90;;;;;;5023577;28;20816;-67
2023/03/16 01:15:29;;;;;;;20.23;14.83;;;1.40;99.90;;;;;;5017628;28;20446;-68
2023/03/16 01:17:55;;;;;;;17.50;15.70;;;1.40;99.90;;;;;;5004915;28;20896;-67
2023/03/16 01:20:21;;;;;;;19.73;14.30;;;1.30;99.90;;;;;;5009722;28;20528;-67
2023/03/16 01:22:46;;;;;;;15.77;14.07;;;1.30;99.90;;;;;;5019339;28;20175;-67
2023/03/16 01:25:13;;;;;;;15.80;14.20;;;1.30;99.90;;;;;;5013261;28;20947;-67
2023/03/16 01:27:39;;;;;;;18.77;16.27;;;1.30;99.90;;;;;;5014128;28;20199;-68
2023/03/16 01:30:05;;;;;;;21.03;17.50;;;1.20;99.90;;;;;;5016011;28;20857;-67
2023/03/16 01:32:31;;;;;;;21.70;17.83;;;1.30;99.90;;;;;;5010368;28;20207;-67
2023/03/16 01:34:57;;;;;;;19.77;17.70;;;1.30;99.90;;;;;;5014322;28;20429;-67
2023/03/16 01:37:22;;;;;;;20.77;18.50;;;1.30;99.90;;;;;;5016153;28;20963;-67
2023/03/16 01:39:49;;;;;;;22.37;18.03;;;1.30;99.90;;;;;;5008406;28;20203;-67
2023/03/16 01:42:14;;;;;;;24.50;20.60;;;1.20;99.90;;;;;;5015655;28;20175;-67
2023/03/16 01:45:00;;;;;;;22.90;20.33;;;1.20;99.90;;;;;;5004090;28;20495;-67
2023/03/16 01:47:26;;;;;;;23.50;20.03;;;1.10;99.90;;;;;;5008583;28;20215;-67
2023/03/16 01:49:55;;;;;;;25.77;19.23;;;1.10;99.90;;;;;;5002485;28;20437;-67
2023/03/16 01:52:27;;;;;;;23.33;19.87;;;1.10;99.90;;;;;;5021648;28;20453;-67
2023/03/16 01:54:58;;;;;;;22.80;20.37;;;1.10;99.90;;;;;;5018009;28;20441;-67
2023/03/16 01:57:35;;;;;;;25.83;20.70;;;1.00;99.90;;;;;;5011400;28;20465;-67
2023/03/16 02:00:22;;;;;;;22.73;20.07;;;1.00;99.90;;;;;;5009486;28;20460;-67
2023/03/16 02:02:51;;;;;;;22.83;19.73;;;0.90;99.90;;;;;;5014485;28;20425;-67
2023/03/16 02:05:32;;;;;;;28.60;21.47;;;0.90;99.90;;;;;;5018407;28;20453;-67
2023/03/16 02:07:59;;;;;;;28.40;22.03;;;0.90;99.90;;;;;;5017988;28;20980;-67
2023/03/16 02:10:27;;;;;;;30.60;23.50;;;0.80;99.90;;;;;;5019994;28;20468;-67
2023/03/16 02:12:53;;;;;;;30.97;23.70;;;0.80;99.90;;;;;;5011767;28;20461;-67
2023/03/16 02:15:19;;;;;;;26.90;22.27;;;0.90;99.90;;;;;;5008309;28;20496;-67
2023/03/16 02:17:47;;;;;;;32.90;22.90;;;0.90;99.90;;;;;;5012308;28;20864;-68
2023/03/16 02:20:35;;;;;;;31.50;23.93;;;0.90;99.90;;;;;;5019874;28;20282;-67
2023/03/16 02:23:02;;;;;;;38.97;24.20;;;0.80;99.90;;;;;;5018747;28;20437;-67
2023/03/16 02:25:35;;;;;;;39.30;24.47;;;0.80;99.90;;;;;;5013957;28;20438;-67
2023/03/16 02:28:37;;;;;;;51.47;26.37;;;0.80;99.90;;;;;;5020994;28;20464;-67
2023/03/16 02:31:05;;;;;;;92.63;26.07;;;0.80;99.90;;;;;;5020904;28;20460;-68
2023/03/16 02:33:32;;;;;;;48.70;23.13;;;0.80;99.90;;;;;;5025242;28;20495;-67
2023/03/16 02:35:58;;;;;;;45.60;23.27;;;0.70;99.90;;;;;;5019169;28;20847;-67
2023/03/16 02:38:23;;;;;;;51.00;22.13;;;0.70;99.90;;;;;;5012022;28;20457;-67
2023/03/16 02:41:17;;;;;;;71.77;23.63;;;0.70;99.90;;;;;;5012003;28;20211;-67
2023/03/16 02:44:00;;;;;;;71.30;23.57;;;0.70;99.90;;;;;;5020624;28;20236;-67
2023/03/16 02:46:27;;;;;;;58.57;23.90;;;0.70;99.90;;;;;;5012854;28;20540;-67
2023/03/16 02:48:52;;;;;;;57.37;24.23;;;0.70;99.90;;;;;;5014706;28;20837;-67
2023/03/16 02:51:18;;;;;;;50.67;23.70;;;0.70;99.90;;;;;;5026087;28;20548;-67
2023/03/16 02:53:43;;;;;;;86.43;25.73;;;0.60;99.90;;;;;;5015088;28;20635;-67
2023/03/16 02:56:09;;;;;;;52.80;23.70;;;0.60;99.90;;;;;;5010902;28;20190;-67
2023/03/16 02:58:35;;;;;;;36.80;22.50;;;0.60;99.90;;;;;;5012091;28;20183;-67
2023/03/16 03:01:01;;;;;;;39.20;22.37;;;0.60;99.90;;;;;;5013705;28;20218;-67
2023/03/16 03:03:26;;;;;;;57.07;22.80;;;0.60;99.90;;;;;;5012587;28;20182;-68
2023/03/16 03:05:52;;;;;;;46.97;22.57;;;0.70;99.90;;;;;;5022086;28;20207;-67
2023/03/16 03:08:20;;;;;;;31.60;21.20;;;0.60;99.90;;;;;;5021357;28;20222;-67
2023/03/16 03:10:45;;;;;;;26.93;20.07;;;0.60;99.90;;;;;;5007127;28;20205;-67
2023/03/16 03:13:11;;;;;;;66.17;23.37;;;0.60;99.90;;;;;;5019751;28;20436;-67
2023/03/16 03:15:36;;;;;;;30.10;20.80;;;0.60;99.90;;;;;;5019847;28;20221;-67
2023/03/16 03:18:03;;;;;;;50.40;24.37;;;0.60;99.90;;;;;;5010319;28;20209;-67
2023/03/16 03:20:28;;;;;;;40.80;22.13;;;0.70;99.90;;;;;;5025729;28;20171;-67
2023/03/16 03:22:54;;;;;;;38.83;19.63;;;0.70;99.90;;;;;;5014996;28;20487;-68
2023/03/16 03:25:21;;;;;;;40.00;18.23;;;0.70;99.90;;;;;;5012067;28;20186;-67
2023/03/16 03:27:48;;;;;;;43.03;20.17;;;0.70;99.90;;;;;;5016310;28;20233;-67
2023/03/16 03:30:17;;;;;;;31.53;20.33;;;0.70;99.90;;;;;;5026969;28;20793;-67
2023/03/16 03:32:43;;;;;;;36.83;19.10;;;0.70;99.90;;;;;;5026117;28;20514;-67
2023/03/16 03:35:13;;;;;;;33.13;20.13;;;0.60;99.90;;;;;;5023106;28;20847;-67
2023/03/16 03:37:41;;;;;;;33.87;20.87;;;0.60;99.90;;;;;;5016558;28;20568;-67
2023/03/16 03:40:09;;;;;;;26.90;19.40;;;0.60;99.90;;;;;;5012450;28;20430;-67
2023/03/16 03:42:35;;;;;;;28.67;19.17;;;0.60;99.90;;;;;;5028278;28;20432;-67
2023/03/16 03:45:00;;;;;;;23.17;19.57;;;0.50;99.90;;;;;;5028070;28;21004;-67
2023/03/16 03:47:26;;;;;;;22.43;18.20;;;0.50;99.90;;;;;;5032855;23;20227;-71
2023/03/16 03:49:51;;;;;;;21.73;18.63;;;0.50;99.90;;;;;;5012827;28;20171;-71
2023/03/16 03:52:17;;;;;;;20.27;16.47;;;0.50;99.90;;;;;;5016075;28;20626;-71
2023/03/16 03:54:42;;;;;;;18.97;16.13;;;0.50;99.90;;;;;;5010990;28;20639;-72
2023/03/16 03:57:08;;;;;;;21.17;17.77;;;0.50;99.90;;;;;;5019380;28;20194;-71
2023/03/16 03:59:39;;;;;;;23.37;18.53;;;0.40;99.90;;;;;;5016387;28;20651;-71
2023/03/16 04:02:05;;;;;;;21.80;18.70;;;0.40;99.90;;;;;;5022159;28;20244;-71
2023/03/16 04:04:30;;;;;;;20.00;16.23;;;0.40;99.90;;;;;;5016687;28;20905;-72
2023/03/16 04:06:56;;;;;;;23.37;18.20;;;0.40;99.90;;;;;;5009616;28;20195;-71
2023/03/16 04:09:22;;;;;;;21.70;18.07;;;0.40;99.90;;;;;;5012892;28;20187;-72
2023/03/16 04:11:48;;;;;;;22.50;19.00;;;0.40;99.90;;;;;;5010213;28;20194;-71
2023/03/16 04:14:13;;;;;;;22.90;18.03;;;0.30;99.90;;;;;;5010144;28;20515;-71
2023/03/16 04:16:39;;;;;;;30.17;17.67;;;0.30;99.90;;;;;;5025698;28;20182;-71
2023/03/16 04:19:04;;;;;;;20.50;17.60;;;0.30;99.90;;;;;;5017232;28;20167;-72
2023/03/16 04:21:31;;;;;;;22.30;17.80;;;0.20;99.90;;;;;;5012208;28;20874;-72
2023/03/16 04:23:56;;;;;;;21.00;18.13;;;0.20;99.90;;;;;;5020335;28;20199;-72
2023/03/16 04:26:24;;;;;;;24.50;18.67;;;0.20;99.90;;;;;;5021044;28;20448;-72
2023/03/16 04:28:51;;;;;;;21.83;17.53;;;0.20;99.90;;;;;;5006168;28;20295;-71
2023/03/16 04:31:16;;;;;;;24.73;19.70;;;0.20;99.90;;;;;;5020146;28;20487;-71
2023/03/16 04:33:42;;;;;;;23.57;18.80;;;0.20;99.90;;;;;;5016096;28;20444;-71
2023/03/16 04:36:08;;;;;;;22.53;18.17;;;0.20;99.90;;;;;;5014809;28;20186;-71
2023/03/16 04:38:34;;;;;;;21.67;17.13;;;0.30;99.90;;;;;;5023386;28;20199;-71
2023/03/16 04:41:01;;;;;;;20.57;17.47;;;0.30;99.90;;;;;;5024893;28;20269;-71
2023/03/16 04:43:26;;;;;;;20.47;16.63;;;0.30;99.90;;;;;;5010974;28;20920;-71
2023/03/16 04:45:52;;;;;;;28.00;18.33;;;0.30;99.90;;;;;;5019974;28;20433;-71
2023/03/16 04:48:18;;;;;;;26.10;20.33;;;0.40;99.90;;;;;;5017835;28;20214;-71
2023/03/16 04:50:44;;;;;;;25.50;18.10;;;0.40;99.90;;;;;;5015855;28;20536;-70
2023/03/16 04:53:10;;;;;;;20.13;17.93;;;0.40;99.90;;;;;;5012320;28;20180;-71
2023/03/16 04:55:35;;;;;;;18.63;16.60;;;0.40;99.90;;;;;;5019425;28;20528;-71
2023/03/16 04:58:01;;;;;;;22.60;18.43;;;0.40;99.90;;;;;;5007096;28;20666;-72
2023/03/16 05:00:27;;;;;;;24.30;18.30;;;0.40;99.90;;;;;;5014941;28;20175;-71
2023/03/16 05:02:52;;;;;;;21.87;18.10;;;0.50;99.90;;;;;;5020999;28;20188;-71
2023/03/16 05:05:18;;;;;;;22.10;18.40;;;0.50;99.90;;;;;;5019405;28;20441;-71
2023/03/16 05:07:44;;;;;;;18.90;16.90;;;0.50;99.90;;;;;;5022517;28;20214;-72
2023/03/16 05:10:11;;;;;;;25.33;19.17;;;0.40;99.90;;;;;;5000117;28;20469;-71
2023/03/16 05:12:37;;;;;;;23.33;17.63;;;0.40;99.90;;;;;;5014614;28;20278;-71
2023/03/16 05:15:03;;;;;;;21.17;16.77;;;0.40;99.90;;;;;;4998586;28;21232;-71
2023/03/16 05:17:29;;;;;;;21.47;17.00;;;0.40;99.90;;;;;;4998732;28;20832;-71
2023/03/16 05:19:54;;;;;;;23.90;17.37;;;0.40;99.90;;;;;;5005819;28;20438;-71
2023/03/16 05:22:20;;;;;;;22.47;16.20;;;0.40;99.90;;;;;;5007738;28;20183;-71
2023/03/16 05:24:45;;;;;;;20.83;15.73;;;0.40;99.90;;;;;;5016245;28;20185;-71
2023/03/16 05:27:11;;;;;;;20.27;16.13;;;0.40;99.90;;;;;;5011695;28;20729;-72
2023/03/16 05:29:36;;;;;;;19.87;15.70;;;0.40;99.90;;;;;;5007209;28;20207;-71
2023/03/16 05:32:02;;;;;;;19.17;16.30;;;0.40;99.90;;;;;;5015045;28;20566;-71
2023/03/16 05:34:28;;;;;;;32.60;20.50;;;0.50;99.90;;;;;;5006551;28;20270;-71
2023/03/16 05:36:53;;;;;;;21.77;16.70;;;0.50;99.90;;;;;;5019477;28;20202;-71
2023/03/16 05:39:19;;;;;;;20.83;15.83;;;0.50;99.90;;;;;;5009451;28;20182;-71
2023/03/16 05:41:44;;;;;;;21.20;17.60;;;0.50;99.90;;;;;;5023051;28;20638;-72
2023/03/16 05:44:10;;;;;;;21.27;16.97;;;0.50;99.90;;;;;;5021170;28;20690;-72
2023/03/16 05:46:35;;;;;;;26.23;17.40;;;0.50;99.90;;;;;;5015928;28;20229;-71
2023/03/16 05:49:01;;;;;;;23.73;17.27;;;0.50;99.90;;;;;;5007841;28;20715;-72
2023/03/16 05:51:27;;;;;;;19.50;15.97;;;0.60;99.90;;;;;;5011836;28;20231;-71
2023/03/16 05:53:56;;;;;;;28.23;19.63;;;0.60;99.90;;;;;;5015278;28;20464;-72
2023/03/16 05:56:24;;;;;;;20.13;17.20;;;0.60;99.90;;;;;;5010927;28;20186;-72
2023/03/16 05:58:51;;;;;;;24.33;17.80;;;0.60;99.90;;;;;;5012221;28;20480;-71
2023/03/16 06:01:19;;;;;;;22.40;16.87;;;0.70;99.90;;;;;;5008705;28;20477;-72
2023/03/16 06:03:45;;;;;;;21.27;17.83;;;0.70;99.90;;;;;;5012081;28;20507;-72
2023/03/16 06:06:11;;;;;;;24.53;19.30;;;0.70;99.90;;;;;;5015829;28;20869;-72
2023/03/16 06:08:36;;;;;;;24.47;19.53;;;0.70;99.90;;;;;;5018265;28;20499;-71
2023/03/16 06:11:03;;;;;;;22.40;18.80;;;0.70;99.90;;;;;;5021396;28;20208;-71
2023/03/16 06:13:28;;;;;;;18.83;16.83;;;0.80;99.90;;;;;;5024473;28;20651;-71
2023/03/16 06:15:54;;;;;;;20.03;17.87;;;0.80;99.90;;;;;;5013543;28;20491;-72
2023/03/16 06:18:20;;;;;;;23.77;19.10;;;0.90;99.90;;;;;;5013486;28;20685;-71
2023/03/16 06:20:46;;;;;;;21.03;17.50;;;1.00;99.90;;;;;;5014217;28;20181;-72
2023/03/16 06:23:12;;;;;;;22.77;20.17;;;1.10;99.90;;;;;;5016103;28;20675;-71
2023/03/16 06:25:39;;;;;;;23.90;17.43;;;1.30;99.90;;;;;;5018990;28;20452;-71
2023/03/16 06:28:04;;;;;;;22.97;17.57;;;1.50;99.90;;;;;;5013410;28;20205;-72
2023/03/16 06:30:30;;;;;;;24.60;19.07;;;1.60;99.90;;;;;;5017754;28;20429;-72
2023/03/16 06:32:56;;;;;;;25.10;19.97;;;1.70;99.90;;;;;;5000810;28;20219;-72
2023/03/16 06:35:22;;;;;;;20.40;17.90;;;1.90;99.90;;;;;;5011974;28;20174;-71
2023/03/16 06:37:47;;;;;;;21.50;18.40;;;2.00;99.90;;;;;;5013355;28;20204;-71
2023/03/16 06:40:13;;;;;;;21.10;17.60;;;2.00;99.90;;;;;;5017568;28;20554;-71
2023/03/16 06:42:39;;;;;;;21.73;17.93;;;2.10;99.90;;;;;;5013492;28;20237;-71
2023/03/16 06:45:05;;;;;;;22.87;17.67;;;2.30;99.90;;;;;;5022113;28;20233;-71
2023/03/16 06:47:31;;;;;;;23.50;19.77;;;2.40;99.90;;;;;;5010966;28;20708;-72
2023/03/16 06:49:56;;;;;;;20.80;17.43;;;2.50;99.90;;;;;;5013431;28;20495;-71
2023/03/16 06:52:22;;;;;;;22.80;17.27;;;2.70;99.90;;;;;;5008953;28;20466;-72
2023/03/16 06:54:48;;;;;;;20.20;17.60;;;2.90;99.90;;;;;;5008584;28;20565;-71
2023/03/16 06:57:13;;;;;;;21.80;16.80;;;3.10;99.90;;;;;;5010213;28;20280;-71
2023/03/16 06:59:39;;;;;;;21.97;18.70;;;3.20;99.90;;;;;;5021539;28;20190;-71
2023/03/16 07:02:05;;;;;;;22.00;17.50;;;3.20;99.90;;;;;;5017315;28;20281;-71
2023/03/16 07:04:32;;;;;;;21.90;17.60;;;3.30;99.90;;;;;;5015995;28;20206;-71
2023/03/16 07:06:58;;;;;;;23.70;18.70;;;3.40;99.90;;;;;;5014058;28;20468;-71
2023/03/16 07:09:24;;;;;;;22.27;18.80;;;3.50;99.90;;;;;;5009628;28;20973;-72
2023/03/16 07:11:50;;;;;;;22.10;17.77;;;3.50;99.90;;;;;;5015935;28;20217;-71
2023/03/16 07:14:16;;;;;;;21.67;18.43;;;3.50;99.90;;;;;;5014299;28;20338;-71
2023/03/16 07:16:42;;;;;;;19.17;16.87;;;3.50;99.90;;;;;;5017231;28;20842;-70
2023/03/16 07:19:07;;;;;;;25.53;18.50;;;3.60;99.90;;;;;;5025069;28;20447;-71
2023/03/16 07:21:38;;;;;;;22.93;18.70;;;3.70;99.90;;;;;;5022048;28;20292;-71
2023/03/16 07:24:04;;;;;;;23.87;18.47;;;3.60;99.90;;;;;;5013543;28;20241;-71
2023/03/16 07:26:31;;;;;;;21.80;17.50;;;3.60;99.90;;;;;;5014063;28;20529;-71
2023/03/16 07:28:57;;;;;;;22.03;17.90;;;3.60;99.90;;;;;;5011645;28;20447;-71
2023/03/16 07:31:23;;;;;;;23.10;17.87;;;3.70;99.90;;;;;;5018872;28;20468;-71
2023/03/16 07:33:49;;;;;;;26.77;16.77;;;3.70;99.90;;;;;;5019797;28;20554;-71
2023/03/16 07:36:14;;;;;;;27.00;18.83;;;3.90;99.90;;;;;;5012469;28;20452;-71
2023/03/16 07:38:41;;;;;;;20.73;15.70;;;4.10;99.90;;;;;;5020502;28;20564;-72
2023/03/16 07:41:06;;;;;;;21.77;16.37;;;4.10;99.90;;;;;;5013448;28;20179;-71
2023/03/16 07:43:32;;;;;;;18.10;14.53;;;4.30;99.90;;;;;;5022711;28;20445;-71
2023/03/16 07:45:58;;;;;;;18.17;15.10;;;4.50;99.90;;;;;;5010618;28;20183;-71
2023/03/16 07:48:23;;;;;;;19.27;15.17;;;4.50;99.90;;;;;;5028201;28;20588;-71
2023/03/16 07:50:49;;;;;;;16.93;14.60;;;4.60;99.90;;;;;;5019342;28;20185;-72
2023/03/16 07:53:15;;;;;;;18.63;14.23;;;4.70;99.90;;;;;;5012019;28;20179;-71
2023/03/16 07:55:42;;;;;;;18.73;15.27;;;4.90;99.90;;;;;;5015402;28;20204;-71
2023/03/16 07:58:09;;;;;;;20.53;14.97;;;5.10;99.90;;;;;;5024132;28;20475;-71
2023/03/16 08:00:35;;;;;;;19.27;15.03;;;5.60;99.90;;;;;;5011054;28;20445;-72
2023/03/16 08:03:01;;;;;;;18.87;14.83;;;5.90;99.90;;;;;;5013915;28;20787;-71
2023/03/16 08:05:27;;;;;;;17.83;14.07;;;6.30;99.90;;;;;;5026246;28;20443;-71
2023/03/16 08:07:54;;;;;;;13.00;11.60;;;6.40;99.90;;;;;;5021041;28;20225;-71
2023/03/16 08:10:20;;;;;;;16.50;13.67;;;6.20;99.90;;;;;;5009777;28;20449;-72
2023/03/16 08:12:46;;;;;;;14.33;12.53;;;6.30;99.90;;;;;;5010345;28;20464;-71
2023/03/16 08:15:12;;;;;;;13.27;11.27;;;6.40;99.90;;;;;;5021862;28;20433;-71
2023/03/16 08:17:40;;;;;;;14.23;12.80;;;6.40;99.90;;;;;;5015013;28;20202;-70
2023/03/16 08:20:09;;;;;;;12.43;10.93;;;6.40;99.90;;;;;;5018817;28;20206;-70
2023/03/16 08:22:35;;;;;;;11.00;9.63;;;6.80;99.90;;;;;;5014015;28;20450;-71
2023/03/16 08:25:02;;;;;;;18.10;10.80;;;7.00;99.90;;;;;;5019389;28;20551;-71
2023/03/16 08:27:28;;;;;;;13.47;11.77;;;7.40;99.90;;;;;;5006711;28;20880;-72
2023/03/16 08:29:53;;;;;;;11.10;9.67;;;7.80;99.90;;;;;;5009909;28;20445;-71
2023/03/16 08:32:19;;;;;;;14.40;10.97;;;7.80;99.90;;;;;;5020731;28;20203;-70
2023/03/16 08:34:46;;;;;;;13.43;9.37;;;7.80;99.90;;;;;;5020104;28;20197;-72
2023/03/16 08:37:12;;;;;;;11.50;10.30;;;8.10;99.90;;;;;;5014080;28;20552;-71
2023/03/16 08:39:40;;;;;;;11.13;9.60;;;8.60;99.90;;;;;;5007945;28;20433;-71
2023/03/16 08:42:07;;;;;;;11.90;9.87;;;9.10;99.90;;;;;;5011578;28;20437;-72
2023/03/16 08:44:32;;;;;;;11.57;10.47;;;9.40;99.90;;;;;;5008838;28;20461;-72
2023/03/16 08:46:58;;;;;;;12.60;10.23;;;9.40;99.90;;;;;;5008555;28;20485;-71
2023/03/16 08:49:26;;;;;;;11.37;10.27;;;9.50;99.90;;;;;;5009475;28;20644;-72
2023/03/16 08:51:51;;;;;;;11.17;8.80;;;9.50;99.90;;;;;;5008233;28;20483;-72
2023/03/16 08:54:17;;;;;;;9.77;8.83;;;9.80;99.90;;;;;;5020100;28;20445;-71
2023/03/16 08:56:43;;;;;;;8.90;7.90;;;10.10;99.90;;;;;;5022714;28;20645;-71
2023/03/16 08:59:08;;;;;;;8.37;7.50;;;11.20;99.90;;;;;;5014930;28;20186;-71
2023/03/16 09:01:34;;;;;;;8.53;7.27;;;11.40;99.90;;;;;;5019349;28;20453;-72
2023/03/16 09:04:00;;;;;;;8.50;7.37;;;10.70;99.90;;;;;;5008589;28;20213;-71
2023/03/16 09:06:26;;;;;;;8.10;7.40;;;10.50;99.90;;;;;;5014800;28;20174;-72
2023/03/16 09:08:52;;;;;;;10.47;9.30;;;10.10;99.90;;;;;;5014035;28;20628;-72
2023/03/16 09:11:21;;;;;;;10.30;8.30;;;10.20;99.90;;;;;;5019610;28;20476;-72
2023/03/16 09:13:47;;;;;;;10.37;9.37;;;10.50;99.90;;;;;;5026882;28;20442;-72
2023/03/16 09:16:14;;;;;;;9.80;8.20;;;11.00;99.90;;;;;;5019951;28;20437;-71
2023/03/16 09:18:41;;;;;;;11.87;8.77;;;11.30;99.90;;;;;;5015759;28;20497;-71
2023/03/16 09:21:09;;;;;;;9.53;8.60;;;12.20;99.90;;;;;;5004983;28;20440;-71
2023/03/16 09:23:38;;;;;;;12.17;9.13;;;12.10;99.90;;;;;;5009813;28;20791;-72
2023/03/16 09:26:06;;;;;;;10.30;9.40;;;12.10;99.90;;;;;;5010039;28;20496;-72
2023/03/16 09:28:33;;;;;;;9.33;8.43;;;12.20;99.90;;;;;;5013369;28;20456;-71
2023/03/16 09:31:00;;;;;;;10.47;8.27;;;12.70;99.90;;;;;;5018271;28;20449;-71
2023/03/16 09:33:30;;;;;;;9.87;8.87;;;12.20;99.90;;;;;;5004974;28;20955;-72
2023/03/16 09:35:57;;;;;;;8.07;7.37;;;12.30;99.90;;;;;;5015723;28;20499;-70
2023/03/16 09:38:25;;;;;;;8.00;7.20;;;13.40;98.40;;;;;;5008891;28;20469;-70
2023/03/16 09:41:07;;;;;;;11.30;9.10;;;15.00;93.60;;;;;;5013602;28;20437;-70
2023/03/16 09:44:10;;;;;;;9.60;8.70;;;15.00;90.80;;;;;;5020977;28;20450;-71
2023/03/16 09:46:41;;;;;;;7.70;7.00;;;14.70;90.70;;;;;;5009572;28;20996;-70
2023/03/16 09:49:10;;;;;;;7.47;6.77;;;13.90;91.40;;;;;;5014880;28;20500;-70
2023/03/16 09:52:05;;;;;;;8.73;7.90;;;15.10;90.80;;;;;;5011558;28;21031;-70
2023/03/16 09:54:55;;;;;;;7.83;7.13;;;16.00;84.40;;;;;;5011847;28;20481;-70
2023/03/16 09:57:30;;;;;;;11.73;8.03;;;15.70;82.20;;;;;;5015986;28;20449;-69
2023/03/16 10:00:16;;;;;;;9.37;8.57;;;14.90;85.60;;;;;;5005875;28;20450;-70
2023/03/16 10:02:56;;;;;;;8.07;7.20;;;15.00;85.70;;;;;;5020134;28;20822;-70
2023/03/16 10:05:23;;;;;;;10.47;9.47;;;15.10;83.10;;;;;;5005096;28;20441;-69
2023/03/16 10:08:13;;;;;;;9.53;7.30;;;14.60;82.80;;;;;;5002836;28;20970;-69
2023/03/16 10:10:57;;;;;;;7.33;6.70;;;14.70;86.20;;;;;;5010383;28;20464;-69
2023/03/16 10:13:42;;;;;;;7.40;6.70;;;15.10;82.50;;;;;;5012175;28;20445;-71
2023/03/16 10:16:16;;;;;;;7.00;6.30;;;15.10;81.80;;;;;;5009675;28;20520;-69
2023/03/16 10:18:57;;;;;;;9.40;7.00;;;16.00;77.50;;;;;;5009343;28;20457;-70
2023/03/16 10:21:23;;;;;;;8.13;7.30;;;16.60;77.30;;;;;;5009870;28;20772;-70
2023/03/16 10:23:51;;;;;;;7.43;6.80;;;16.90;78.90;;;;;;5010117;28;20422;-70
2023/03/16 10:26:30;;;;;;;7.37;6.77;;;16.80;76.20;;;;;;5016331;28;21045;-70
2023/03/16 10:28:55;;;;;;;7.97;7.27;;;16.00;75.90;;;;;;5008000;28;20466;-71
2023/03/16 10:31:23;;;;;;;10.83;7.60;;;16.60;76.60;;;;;;5019261;28;21005;-70
2023/03/16 10:33:54;;;;;;;7.00;6.30;;;16.50;75.90;;;;;;5006372;28;20539;-69
2023/03/16 10:36:23;;;;;;;7.83;7.23;;;17.20;72.00;;;;;;5022041;28;20436;-69
2023/03/16 10:38:58;;;;;;;6.10;5.60;;;17.40;69.70;;;;;;5007908;28;20454;-70
2023/03/16 10:41:31;;;;;;;7.30;6.80;;;18.20;65.80;;;;;;5010264;28;20435;-71
2023/03/16 10:44:06;;;;;;;6.70;6.20;;;18.60;63.10;;;;;;5007149;28;20433;-70
2023/03/16 10:46:40;;;;;;;7.40;6.70;;;17.00;64.10;;;;;;5022572;28;20432;-71
2023/03/16 10:49:24;;;;;;;8.50;6.77;;;16.40;68.10;;;;;;5017550;28;20870;-69
2023/03/16 10:51:51;;;;;;;6.70;6.17;;;17.60;65.50;;;;;;5012566;28;20844;-70
2023/03/16 10:54:31;;;;;;;9.50;6.67;;;18.90;63.70;;;;;;5012112;28;20954;-69
2023/03/16 10:56:57;;;;;;;6.77;6.17;;;19.60;58.00;;;;;;5019021;28;20450;-69
2023/03/16 10:59:32;;;;;;;7.80;6.57;;;18.40;58.70;;;;;;5019830;28;20436;-69
2023/03/16 11:02:12;;;;;;;6.90;5.80;;;18.60;58.00;;;;;;5031465;28;20436;-69
2023/03/16 11:04:38;;;;;;;9.37;7.00;;;18.20;58.00;;;;;;5029119;28;20437;-68
2023/03/16 11:07:10;;;;;;;5.97;5.47;;;18.60;59.40;;;;;;5019977;28;20456;-69
2023/03/16 11:09:36;;;;;;;7.27;6.57;;;20.30;55.80;;;;;;5019481;28;20182;-70
2023/03/16 11:12:23;;;;;;;6.10;5.57;;;20.60;52.40;;;;;;5014187;28;20490;-70
2023/03/16 11:14:48;;;;;;;6.20;5.60;;;20.00;53.00;;;;;;5004416;28;20651;-65
2023/03/16 11:17:20;;;;;;;5.10;4.70;;;20.20;52.80;;;;;;5009564;28;20456;-67
2023/03/16 11:19:56;;;;;;;6.10;5.50;;;21.10;51.30;;;;;;5019849;28;20175;-65
2023/03/16 11:22:24;;;;;;;6.97;6.27;;;22.70;48.60;;;;;;5013378;28;20441;-68
2023/03/16 11:24:59;;;;;;;4.53;4.17;;;22.20;46.50;;;;;;5008126;28;20436;-65
2023/03/16 11:27:52;;;;;;;4.70;4.30;;;20.00;47.50;;;;;;5015240;28;20497;-68
2023/03/16 11:31:07;;;;;;;5.00;4.60;;;20.50;48.10;;;;;;5004330;28;20488;-67
2023/03/16 11:33:33;;;;;;;6.07;5.33;;;19.40;49.20;;;;;;5002202;28;20453;-70
2023/03/16 11:36:28;;;;;;;5.73;5.27;;;19.80;48.70;;;;;;5012292;28;20437;-70
2023/03/16 11:39:14;;;;;;;6.47;5.77;;;20.10;48.40;;;;;;5012930;28;20800;-70
2023/03/16 11:42:14;;;;;;;5.77;5.20;;;21.40;47.50;;;;;;5009005;28;20508;-70
2023/03/16 11:44:50;;;;;;;4.83;4.43;;;23.30;45.40;;;;;;5014901;28;20433;-69
2023/03/16 11:47:47;;;;;;;4.83;4.43;;;22.60;45.40;;;;;;5019180;28;20976;-69
2023/03/16 11:50:35;;;;;;;5.47;4.43;;;22.90;43.70;;;;;;5011215;28;20456;-70
2023/03/16 11:53:31;;;;;;;3.80;3.50;;;23.30;42.90;;;;;;5012748;28;20800;-70
2023/03/16 11:56:22;;;;;;;6.43;3.57;;;23.40;41.60;;;;;;5009733;28;20434;-70
2023/03/16 11:59:06;;;;;;;4.57;4.07;;;23.20;41.60;;;;;;5010072;28;20452;-70
2023/03/16 12:02:00;;;;;;;5.20;4.70;;;23.90;40.40;;;;;;5023071;28;20451;-70
2023/03/16 12:04:54;;;;;;;3.90;3.57;;;24.80;39.50;;;;;;5012614;28;20450;-70
2023/03/16 12:07:28;;;;;;;5.10;3.23;;;23.50;39.20;;;;;;5011286;28;20445;-70
2023/03/16 12:10:02;;;;;;;4.70;3.80;;;23.00;39.30;;;;;;5019925;28;20428;-70
2023/03/16 12:12:52;;;;;;;4.13;3.70;;;22.70;39.90;;;;;;5008344;28;20891;-70
2023/03/16 12:15:37;;;;;;;4.20;3.80;;;21.70;40.90;;;;;;5019813;28;20437;-70
2023/03/16 12:18:18;;;;;;;4.30;3.90;;;22.20;41.20;;;;;;5013302;28;20874;-70
2023/03/16 12:20:49;;;;;;;3.10;2.90;;;22.40;39.70;;;;;;5009207;28;20429;-69
2023/03/16 12:23:28;;;;;;;3.53;3.30;;;22.50;40.10;;;;;;5009532;28;20806;-70
2023/03/16 12:25:58;;;;;;;4.10;3.43;;;23.00;39.00;;;;;;5018884;28;20440;-70
2023/03/16 12:28:26;;;;;;;3.97;3.60;;;21.40;39.70;;;;;;5019984;28;20453;-69
2023/03/16 12:31:08;;;;;;;3.73;3.47;;;21.60;40.70;;;;;;5007193;28;20441;-69
2023/03/16 12:33:38;;;;;;;4.70;4.07;;;20.90;41.30;;;;;;5012896;28;20977;-69
2023/03/16 12:36:35;;;;;;;3.93;3.63;;;20.90;41.10;;;;;;5020827;28;20429;-69
2023/03/16 12:39:06;;;;;;;4.10;3.53;;;23.00;40.20;;;;;;5010975;28;20517;-69
2023/03/16 12:41:49;;;;;;;4.10;3.80;;;23.70;38.80;;;;;;5009730;28;20603;-69
2023/03/16 12:44:30;;;;;;;4.00;3.70;;;22.70;38.90;;;;;;5012558;28;20440;-69
2023/03/16 12:46:56;;;;;;;3.70;3.40;;;21.80;38.70;;;;;;5012999;28;20991;-69
2023/03/16 12:49:23;;;;;;;5.10;4.00;;;20.00;41.70;;;;;;5012890;28;20967;-70
2023/03/16 12:52:05;;;;;;;3.60;3.30;;;20.40;42.40;;;;;;5008627;28;20457;-70
2023/03/16 12:54:32;;;;;;;3.90;3.50;;;20.00;41.70;;;;;;5003291;28;20522;-69